createdAt,value
2022-08-05T00:00:17.536Z,3.90
2022-08-05T00:02:50.807Z,3.67
2022-08-05T00:06:01.821Z,3.58
2022-08-05T00:08:05.110Z,3.42
2022-08-05T00:10:34.022Z,3.47
2022-08-05T00:13:02.244Z,4.10
2022-08-05T00:15:55.697Z,3.80
2022-08-05T00:18:21.589Z,3.90
2022-08-05T00:20:49.969Z,2.88
2022-08-05T00:23:16.693Z,3.75
2022-08-05T00:25:45.978Z,3.42
2022-08-05T00:28:13.547Z,3.40
2022-08-05T00:30:41.258Z,3.80
2022-08-05T00:33:15.721Z,3.33
2022-08-05T00:36:16.503Z,3.35
2022-08-05T00:38:44.815Z,3.45
2022-08-05T00:41:12.031Z,3.60
2022-08-05T00:43:47.192Z,3.95
2022-08-05T00:46:16.259Z,4.00
2022-08-05T00:48:50.768Z,4.22
2022-08-05T00:51:50.610Z,4.03
2022-08-05T00:54:08.387Z,3.75
2022-08-05T00:56:38.291Z,3.97
2022-08-05T00:59:13.702Z,3.58
2022-08-05T01:01:42.585Z,4.25
2022-08-05T01:04:15.901Z,4.28
2022-08-05T01:06:43.704Z,3.97
2022-08-05T01:09:15.129Z,4.75
2022-08-05T01:11:46.140Z,4.53
2022-08-05T01:14:40.744Z,4.78
2022-08-05T01:17:13.599Z,4.43
2022-08-05T01:20:01.615Z,4.63
2022-08-05T01:22:58.577Z,4.65
2022-08-05T01:25:53.388Z,3.67
2022-08-05T01:28:48.346Z,4.15
2022-08-05T01:31:42.680Z,4.32
2022-08-05T01:34:30.880Z,4.43
2022-08-05T01:37:09.541Z,4.30
2022-08-05T01:39:47.819Z,4.82
2022-08-05T01:42:19.246Z,3.90
2022-08-05T01:44:54.369Z,4.60
2022-08-05T01:47:23.588Z,4.22
2022-08-05T01:50:02.007Z,4.50
2022-08-05T01:52:31.544Z,4.53
2022-08-05T01:55:04.677Z,5.00
2022-08-05T01:58:29.201Z,4.90
2022-08-05T02:00:30.660Z,4.97
2022-08-05T02:03:24.325Z,5.00
2022-08-05T02:06:00.878Z,4.85
2022-08-05T02:08:29.749Z,4.45
2022-08-05T02:11:04.445Z,4.35
2022-08-05T02:13:54.607Z,4.32
2022-08-05T02:16:23.135Z,4.47
2022-08-05T02:18:56.115Z,5.20
2022-08-05T02:21:28.268Z,4.30
2022-08-05T02:24:03.080Z,4.35
2022-08-05T02:26:54.741Z,3.90
2022-08-05T02:29:26.274Z,4.32
2022-08-05T02:32:23.962Z,3.97
2022-08-05T02:35:09.666Z,4.72
2022-08-05T02:37:47.840Z,4.30
2022-08-05T02:40:22.702Z,3.42
2022-08-05T02:42:54.026Z,4.38
2022-08-05T02:45:23.875Z,4.40
2022-08-05T02:48:07.357Z,4.18
2022-08-05T02:50:44.395Z,5.00
2022-08-05T02:53:18.689Z,6.10
2022-08-05T02:55:59.623Z,6.95
2022-08-05T02:58:30.140Z,5.60
2022-08-05T03:01:00.712Z,6.50
2022-08-05T03:03:34.273Z,6.00
2022-08-05T03:06:57.245Z,5.53
2022-08-05T03:09:05.073Z,6.00
2022-08-05T03:11:55.420Z,5.97
2022-08-05T03:14:21.341Z,6.03
2022-08-05T03:16:47.993Z,6.95
2022-08-05T03:19:20.276Z,6.35
2022-08-05T03:22:01.432Z,6.15
2022-08-05T03:24:30.423Z,5.47
2022-08-05T03:26:59.388Z,5.15
2022-08-05T03:29:45.535Z,4.80
2022-08-05T03:32:15.239Z,5.82
2022-08-05T03:34:50.978Z,6.20
2022-08-05T03:37:20.391Z,6.20
2022-08-05T03:40:00.898Z,5.93
2022-08-05T03:42:32.834Z,6.45
2022-08-05T03:45:21.661Z,7.53
2022-08-05T03:47:49.870Z,5.15
2022-08-05T03:50:16.681Z,6.72
2022-08-05T03:55:00.349Z,6.60
2022-08-05T03:56:10.270Z,6.22
2022-08-05T03:58:42.740Z,6.88
2022-08-05T04:01:13.273Z,5.90
2022-08-05T04:03:42.371Z,6.00
2022-08-05T04:06:29.636Z,4.53
2022-08-05T04:08:58.574Z,4.68
2022-08-05T04:11:50.483Z,5.05
2022-08-05T04:14:17.860Z,4.13
2022-08-05T04:16:45.210Z,4.35
2022-08-05T04:19:13.214Z,4.43
2022-08-05T04:22:10.080Z,4.82
2022-08-05T04:24:27.640Z,3.88
2022-08-05T04:26:54.437Z,4.57
2022-08-05T04:29:21.147Z,4.13
2022-08-05T04:31:49.836Z,4.60
2022-08-05T04:34:19.667Z,4.90
2022-08-05T04:37:00.769Z,4.70
2022-08-05T04:39:27.875Z,4.93
2022-08-05T04:41:55.335Z,5.00
2022-08-05T04:44:29.059Z,5.80
2022-08-05T04:47:09.766Z,4.47
2022-08-05T04:50:01.042Z,4.82
2022-08-05T04:52:27.623Z,5.07
2022-08-05T04:54:57.169Z,4.75
2022-08-05T04:57:28.925Z,5.30
2022-08-05T04:59:58.664Z,4.90
2022-08-05T05:02:36.167Z,3.92
2022-08-05T05:05:16.878Z,5.05
2022-08-05T05:07:56.141Z,4.20
2022-08-05T05:10:29.633Z,4.50
2022-08-05T05:12:56.689Z,4.43
2022-08-05T05:15:57.341Z,4.57
2022-08-05T05:18:15.116Z,3.55
2022-08-05T05:20:55.257Z,4.85
2022-08-05T05:23:21.915Z,3.67
2022-08-05T05:25:48.764Z,3.65
2022-08-05T05:28:15.535Z,4.82
2022-08-05T05:30:42.482Z,4.60
2022-08-05T05:33:16.170Z,4.97
2022-08-05T05:35:45.512Z,5.63
2022-08-05T05:38:14.247Z,5.05
2022-08-05T05:40:49.715Z,4.22
2022-08-05T05:43:27.693Z,5.47
2022-08-05T05:46:12.243Z,5.55
2022-08-05T05:48:44.010Z,4.65
2022-08-05T05:51:15.661Z,4.97
2022-08-05T05:53:54.150Z,5.35
2022-08-05T05:56:33.279Z,4.72
2022-08-05T05:59:08.070Z,5.60
2022-08-05T06:01:37.877Z,5.32
2022-08-05T06:04:07.454Z,5.57
2022-08-05T06:06:35.133Z,5.40
2022-08-05T06:09:04.076Z,6.07
2022-08-05T06:11:34.252Z,6.10
2022-08-05T06:14:01.269Z,5.70
2022-08-05T06:16:32.826Z,4.45
2022-08-05T06:19:05.718Z,5.10
2022-08-05T06:22:04.620Z,5.43
2022-08-05T06:24:59.118Z,5.05
2022-08-05T06:28:11.172Z,4.82
2022-08-05T06:31:35.212Z,5.65
2022-08-05T06:37:56.163Z,4.63
2022-08-05T06:40:27.933Z,5.65
2022-08-05T06:42:59.005Z,6.20
2022-08-05T06:45:44.908Z,5.05
2022-08-05T06:48:47.345Z,5.70
2022-08-05T06:51:00.045Z,5.97
2022-08-05T06:53:28.663Z,5.45
2022-08-05T06:55:59.062Z,5.13
2022-08-05T06:58:35.378Z,4.72
2022-08-05T07:01:05.764Z,4.55
2022-08-05T07:03:33.458Z,4.70
2022-08-05T07:06:06.306Z,4.45
2022-08-05T07:08:43.126Z,3.97
2022-08-05T07:11:15.763Z,4.50
2022-08-05T07:14:01.569Z,5.07
2022-08-05T07:17:59.875Z,3.65
2022-08-05T07:22:27.895Z,4.07
2022-08-05T07:24:58.051Z,3.72
2022-08-05T07:27:27.539Z,3.90
2022-08-05T07:30:30.258Z,4.07
2022-08-05T07:32:58.510Z,3.97
2022-08-05T07:35:55.849Z,3.63
2022-08-05T07:38:31.971Z,3.80
2022-08-05T07:40:58.938Z,3.55
2022-08-05T07:43:29.562Z,3.50
2022-08-05T07:45:57.700Z,3.80
2022-08-05T07:49:00.458Z,4.05
2022-08-05T07:51:36.356Z,4.18
2022-08-05T07:53:59.098Z,4.07
2022-08-05T07:57:00.667Z,4.10
2022-08-05T07:59:15.488Z,4.57
2022-08-05T08:01:52.235Z,5.32
2022-08-05T08:04:37.531Z,4.30
2022-08-05T08:07:07.325Z,6.18
2022-08-05T08:09:34.813Z,5.82
2022-08-05T08:12:09.033Z,6.63
2022-08-05T08:14:42.551Z,6.32
2022-08-05T08:17:16.113Z,6.57
2022-08-05T08:20:43.690Z,5.10
2022-08-05T08:22:35.624Z,6.05
2022-08-05T08:25:03.255Z,7.30
2022-08-05T08:27:35.796Z,6.88
2022-08-05T08:30:29.992Z,6.70
2022-08-05T08:32:58.284Z,7.47
2022-08-05T08:35:34.755Z,8.35
2022-08-05T08:38:01.995Z,7.28
2022-08-05T08:40:32.092Z,6.82
2022-08-05T08:44:55.753Z,7.28
2022-08-05T08:45:49.433Z,9.45
2022-08-05T08:48:36.146Z,8.13
2022-08-05T08:51:22.493Z,7.40
2022-08-05T08:53:54.094Z,6.80
2022-08-05T08:56:22.176Z,7.30
2022-08-05T08:58:49.633Z,7.07
2022-08-05T09:01:19.096Z,7.20
2022-08-05T09:03:55.071Z,6.68
2022-08-05T09:06:29.226Z,6.97
2022-08-05T09:09:00.546Z,6.53
2022-08-05T09:11:51.249Z,6.82
2022-08-05T09:14:58.425Z,6.82
2022-08-05T09:17:08.141Z,6.47
2022-08-05T09:20:01.615Z,6.07
2022-08-05T09:22:31.007Z,6.93
2022-08-05T09:25:14.041Z,6.15
2022-08-05T09:28:05.466Z,6.63
2022-08-05T09:30:34.409Z,6.20
2022-08-05T09:33:04.924Z,6.15
2022-08-05T09:35:31.885Z,6.65
2022-08-05T09:38:12.391Z,7.55
2022-08-05T09:40:52.448Z,5.95
2022-08-05T09:43:40.977Z,6.22
2022-08-05T09:46:28.338Z,6.53
2022-08-05T09:49:08.178Z,6.22
2022-08-05T09:54:21.343Z,6.05
2022-08-05T09:56:57.665Z,5.95
2022-08-05T09:59:28.519Z,5.45
2022-08-05T10:01:58.363Z,5.88
2022-08-05T10:04:36.286Z,5.90
2022-08-05T10:07:20.175Z,5.65
2022-08-05T10:10:14.639Z,4.70
2022-08-05T10:12:49.410Z,6.10
2022-08-05T10:15:39.578Z,5.75
2022-08-05T10:18:25.546Z,5.82
2022-08-05T10:20:55.728Z,5.80
2022-08-05T10:23:58.827Z,5.30
2022-08-05T10:26:24.259Z,5.57
2022-08-05T10:28:58.551Z,5.35
2022-08-05T10:32:52.207Z,5.68
2022-08-05T10:34:11.952Z,5.93
2022-08-05T10:36:40.598Z,5.57
2022-08-05T10:39:25.261Z,5.13
2022-08-05T10:42:18.426Z,5.18
2022-08-05T10:44:52.379Z,5.95
2022-08-05T10:47:25.873Z,4.80
2022-08-05T10:50:36.464Z,5.63
2022-08-05T10:53:06.152Z,5.18
2022-08-05T10:56:03.276Z,4.47
2022-08-05T10:58:21.142Z,5.03
2022-08-05T11:00:48.497Z,4.75
2022-08-05T11:03:23.148Z,4.68
2022-08-05T11:06:16.032Z,4.70
2022-08-05T11:09:24.447Z,4.47
2022-08-05T11:12:06.139Z,5.38
2022-08-05T11:15:01.463Z,4.55
2022-08-05T11:17:59.859Z,6.07
2022-08-05T11:23:05.755Z,7.65
2022-08-05T11:26:04.516Z,9.20
2022-08-05T11:28:30.736Z,9.95
2022-08-05T11:31:06.413Z,10.02
2022-08-05T11:33:46.322Z,10.35
2022-08-05T11:36:33.990Z,10.05
2022-08-05T11:39:01.577Z,11.20
2022-08-05T11:41:58.304Z,11.05
2022-08-05T11:44:40.541Z,11.20
2022-08-05T11:47:11.098Z,11.45
2022-08-05T11:49:43.318Z,12.52
2022-08-05T11:52:29.485Z,11.70
2022-08-05T11:54:58.543Z,12.10
2022-08-05T11:58:08.222Z,11.82
2022-08-05T12:00:31.545Z,10.95
2022-08-05T12:03:28.448Z,10.25
2022-08-05T12:06:05.824Z,10.20
2022-08-05T12:08:56.791Z,10.13
2022-08-05T12:11:40.139Z,10.05
2022-08-05T12:14:11.101Z,10.68
2022-08-05T12:16:45.546Z,10.65
2022-08-05T12:20:25.769Z,11.00
2022-08-05T12:22:06.025Z,10.55
2022-08-05T12:24:52.682Z,8.43
2022-08-05T12:27:52.873Z,9.10
2022-08-05T12:30:32.367Z,8.15
2022-08-05T12:33:07.348Z,8.20
2022-08-05T12:35:46.290Z,7.85
2022-08-05T12:38:15.179Z,7.40
2022-08-05T12:40:44.099Z,7.85
2022-08-05T12:43:11.542Z,6.53
2022-08-05T12:45:55.402Z,6.38
2022-08-05T12:48:27.532Z,6.65
2022-08-05T12:51:22.092Z,6.35
2022-08-05T12:54:03.660Z,5.30
2022-08-05T12:56:35.395Z,4.18
2022-08-05T12:59:46.477Z,4.18
2022-08-05T13:02:11.757Z,4.60
2022-08-05T13:04:54.304Z,4.95
2022-08-05T13:07:55.738Z,5.93
2022-08-05T13:10:12.349Z,5.35
2022-08-05T13:12:50.826Z,4.80
2022-08-05T13:15:41.129Z,5.50
2022-08-05T13:18:08.547Z,5.07
2022-08-05T13:20:35.873Z,5.00
2022-08-05T13:23:07.577Z,4.10
2022-08-05T13:25:58.224Z,4.15
2022-08-05T13:28:22.023Z,4.95
2022-08-05T13:30:49.007Z,4.20
2022-08-05T13:34:22.397Z,4.22
2022-08-05T13:36:06.854Z,3.92
2022-08-05T13:38:42.464Z,4.38
2022-08-05T13:41:11.359Z,3.80
2022-08-05T13:43:45.760Z,4.43
2022-08-05T13:46:37.896Z,4.07
2022-08-05T13:49:12.656Z,4.03
2022-08-05T13:51:46.189Z,3.15
2022-08-05T13:54:15.299Z,3.70
2022-08-05T13:56:45.075Z,3.58
2022-08-05T13:59:20.051Z,3.03
2022-08-05T14:01:59.175Z,2.88
2022-08-05T14:04:57.074Z,2.80
2022-08-05T14:08:01.130Z,2.08
2022-08-05T14:10:28.080Z,1.60
2022-08-05T14:12:56.062Z,1.77
2022-08-05T14:16:08.567Z,1.60
2022-08-05T14:18:15.106Z,1.83
2022-08-05T14:20:47.239Z,2.05
2022-08-05T14:23:23.399Z,2.13
2022-08-05T14:25:54.119Z,1.80
2022-08-05T14:28:27.046Z,2.00
2022-08-05T14:30:57.516Z,1.98
2022-08-05T14:33:24.383Z,1.58
2022-08-05T14:35:53.953Z,1.92
2022-08-05T14:38:32.457Z,2.08
2022-08-05T14:41:05.957Z,1.90
2022-08-05T14:43:59.478Z,1.70
2022-08-05T14:46:21.988Z,1.50
2022-08-05T14:48:49.856Z,1.85
2022-08-05T14:51:17.661Z,1.90
2022-08-05T14:53:45.496Z,2.00
2022-08-05T14:56:32.106Z,1.80
2022-08-05T14:58:58.842Z,1.90
2022-08-05T15:01:48.702Z,2.05
2022-08-05T15:04:12.365Z,2.03
2022-08-05T15:06:40.424Z,2.03
2022-08-05T15:09:07.276Z,2.10
2022-08-05T15:11:51.323Z,1.90
2022-08-05T15:14:35.083Z,1.60
2022-08-05T15:17:09.962Z,2.10
2022-08-05T15:19:55.818Z,1.40
2022-08-05T15:22:27.102Z,1.35
2022-08-05T15:24:55.447Z,1.50
2022-08-05T15:27:22.342Z,1.45
2022-08-05T15:29:52.967Z,1.40
2022-08-05T15:32:27.513Z,1.40
2022-08-05T15:34:56.727Z,1.60
2022-08-05T15:38:09.268Z,1.40
2022-08-05T15:40:58.277Z,1.27
2022-08-05T15:43:09.169Z,1.38
2022-08-05T15:45:45.626Z,1.45
2022-08-05T15:48:13.989Z,1.38
2022-08-05T15:50:43.561Z,1.10
2022-08-05T15:53:12.763Z,1.70
2022-08-05T15:56:01.235Z,1.50
2022-08-05T15:58:29.837Z,1.38
2022-08-05T16:01:15.780Z,1.00
2022-08-05T16:03:48.439Z,1.60
2022-08-05T16:06:19.967Z,1.70
2022-08-05T16:08:48.337Z,1.42
2022-08-05T16:11:18.485Z,1.25
2022-08-05T16:13:48.352Z,1.20
2022-08-05T16:16:15.871Z,1.50
2022-08-05T16:18:52.829Z,1.30
2022-08-05T16:21:20.835Z,1.33
2022-08-05T16:24:12.617Z,2.08
2022-08-05T16:27:00.739Z,1.40
2022-08-05T16:29:28.587Z,1.25
2022-08-05T16:31:58.428Z,1.80
2022-08-05T16:34:26.415Z,1.58
2022-08-05T16:36:53.522Z,1.48
2022-08-05T16:39:21.008Z,1.42
2022-08-05T16:42:14.867Z,1.50
2022-08-05T16:44:34.486Z,1.48
2022-08-05T16:47:04.471Z,1.60
2022-08-05T16:49:31.244Z,1.50
2022-08-05T16:51:57.925Z,1.50
2022-08-05T16:54:31.960Z,1.50
2022-08-05T16:57:00.214Z,1.52
2022-08-05T16:59:30.814Z,1.88
2022-08-05T17:01:57.762Z,2.03
2022-08-05T17:04:28.139Z,1.40
2022-08-05T17:07:03.501Z,1.67
2022-08-05T17:09:57.527Z,1.88
2022-08-05T17:12:50.638Z,1.48
2022-08-05T17:15:19.198Z,1.98
2022-08-05T17:17:54.745Z,1.70
2022-08-05T17:20:22.075Z,1.90
2022-08-05T17:22:54.324Z,1.40
2022-08-05T17:25:33.946Z,1.58
2022-08-05T17:28:06.421Z,1.58
2022-08-05T17:30:34.513Z,1.60
2022-08-05T17:33:17.656Z,1.92
2022-08-05T17:36:08.755Z,1.65
2022-08-05T17:38:33.636Z,1.98
2022-08-05T17:41:01.642Z,1.77
2022-08-05T17:43:50.556Z,1.60
2022-08-05T17:46:15.480Z,1.55
2022-08-05T17:48:45.045Z,1.73
2022-08-05T17:51:14.843Z,1.52
2022-08-05T17:53:50.889Z,1.40
2022-08-05T17:56:21.596Z,1.70
2022-08-05T17:58:49.591Z,1.70
2022-08-05T18:01:18.094Z,2.17
2022-08-05T18:03:59.683Z,2.25
2022-08-05T18:06:31.509Z,2.45
2022-08-05T18:08:59.567Z,2.03
2022-08-05T18:11:33.516Z,1.70
2022-08-05T18:14:07.169Z,1.75
2022-08-05T18:16:35.657Z,2.17
2022-08-05T18:19:18.300Z,1.65
2022-08-05T18:22:08.864Z,2.33
2022-08-05T18:24:36.620Z,2.00
2022-08-05T18:27:03.693Z,1.90
2022-08-05T18:29:40.789Z,1.80
2022-08-05T18:32:13.057Z,2.20
2022-08-05T18:34:42.817Z,1.77
2022-08-05T18:37:12.292Z,2.38
2022-08-05T18:40:31.051Z,1.70
2022-08-05T18:42:27.224Z,1.95
2022-08-05T18:44:56.178Z,1.75
2022-08-05T18:47:26.688Z,2.30
2022-08-05T18:50:12.825Z,1.90
2022-08-05T18:52:41.747Z,1.77
2022-08-05T18:55:18.656Z,3.47
2022-08-05T18:57:52.784Z,4.05
2022-08-05T19:00:28.839Z,2.55
2022-08-05T19:02:56.430Z,2.97
2022-08-05T19:06:12.266Z,2.30
2022-08-05T19:08:12.225Z,2.00
2022-08-05T19:10:40.731Z,1.90
2022-08-05T19:13:07.810Z,2.05
2022-08-05T19:18:26.070Z,1.85
2022-08-05T19:20:56.134Z,2.25
2022-08-05T19:24:07.342Z,2.13
2022-08-05T19:26:12.013Z,2.33
2022-08-05T19:28:44.060Z,1.70
2022-08-05T19:33:48.301Z,1.80
2022-08-05T19:36:23.475Z,2.30
2022-08-05T19:38:50.109Z,2.08
2022-08-05T19:41:16.827Z,2.40
2022-08-05T19:44:04.093Z,2.63
2022-08-05T19:46:39.325Z,2.70
2022-08-05T19:49:07.203Z,2.63
2022-08-05T19:52:09.305Z,2.67
2022-08-05T19:54:31.571Z,2.70
2022-08-05T19:56:59.887Z,2.17
2022-08-05T20:00:01.761Z,2.45
2022-08-05T20:02:17.690Z,2.45
2022-08-05T20:04:46.184Z,2.10
2022-08-05T20:07:14.244Z,1.90
2022-08-05T20:09:53.542Z,1.98
2022-08-05T20:12:20.944Z,1.55
2022-08-05T20:14:49.426Z,1.67
2022-08-05T20:17:23.711Z,2.33
2022-08-05T20:19:56.559Z,1.92
2022-08-05T20:22:25.049Z,1.35
2022-08-05T20:24:55.562Z,1.80
2022-08-05T20:27:26.621Z,1.25
2022-08-05T20:29:58.516Z,1.50
2022-08-05T20:32:27.397Z,1.10
2022-08-05T20:34:54.896Z,1.50
2022-08-05T20:38:04.937Z,1.33
2022-08-05T20:40:09.229Z,1.30
2022-08-05T20:42:36.034Z,0.90
2022-08-05T20:45:04.175Z,0.73
2022-08-05T20:47:32.737Z,1.27
2022-08-05T20:50:01.838Z,0.80
2022-08-05T20:52:29.263Z,1.00
2022-08-05T20:55:16.102Z,0.63
2022-08-05T20:57:44.921Z,1.02
2022-08-05T21:00:40.483Z,0.80
2022-08-05T21:03:07.019Z,1.00
2022-08-05T21:05:48.184Z,1.00
2022-08-05T21:08:33.003Z,1.30
2022-08-05T21:11:15.259Z,1.17
2022-08-05T21:13:59.851Z,1.30
2022-08-05T21:16:29.921Z,1.30
2022-08-05T21:19:01.223Z,1.30
2022-08-05T21:21:39.487Z,0.80
2022-08-05T21:24:12.963Z,1.10
2022-08-05T21:26:40.203Z,1.50
2022-08-05T21:29:10.086Z,1.10
2022-08-05T21:31:42.063Z,1.60
2022-08-05T21:34:10.608Z,1.40
2022-08-05T21:36:38.379Z,1.13
2022-08-05T21:39:05.307Z,1.20
2022-08-05T21:41:35.454Z,0.90
2022-08-05T21:44:04.278Z,1.23
2022-08-05T21:46:34.237Z,1.10
2022-08-05T21:49:02.718Z,1.05
2022-08-05T21:52:22.459Z,1.10
2022-08-05T21:54:27.805Z,0.80
2022-08-05T21:57:04.859Z,1.00
2022-08-05T22:00:01.557Z,1.00
2022-08-05T22:02:28.234Z,1.13
2022-08-05T22:04:58.081Z,1.17
2022-08-05T22:07:40.067Z,0.90
2022-08-05T22:10:12.561Z,0.95
2022-08-05T22:12:40.208Z,1.27
2022-08-05T22:15:16.600Z,1.00
2022-08-05T22:17:48.656Z,1.02
2022-08-05T22:20:26.475Z,1.10
2022-08-05T22:23:17.086Z,1.35
2022-08-05T22:26:10.528Z,0.95
2022-08-05T22:28:38.717Z,1.00
2022-08-05T22:31:05.972Z,0.98
2022-08-05T22:33:55.479Z,1.15
2022-08-05T22:36:20.366Z,0.95
2022-08-05T22:38:51.293Z,0.80
2022-08-05T22:42:05.684Z,1.10
2022-08-05T22:44:07.818Z,1.10
2022-08-05T22:46:39.714Z,0.90
2022-08-05T22:49:23.347Z,1.42
2022-08-05T22:52:05.772Z,1.10
2022-08-05T22:54:35.319Z,0.90
2022-08-05T22:57:02.880Z,0.70
2022-08-05T22:59:43.941Z,1.08
2022-08-05T23:02:16.866Z,1.00
2022-08-05T23:04:51.298Z,0.98
2022-08-05T23:07:18.597Z,0.90
2022-08-05T23:09:58.004Z,1.00
2022-08-05T23:12:32.374Z,0.80
2022-08-05T23:15:08.436Z,0.82
2022-08-05T23:17:37.912Z,0.85
2022-08-05T23:20:23.433Z,1.00
2022-08-05T23:22:56.044Z,1.00
2022-08-05T23:25:51.328Z,1.10
2022-08-05T23:28:10.742Z,1.20
2022-08-05T23:30:40.301Z,1.48
2022-08-05T23:33:21.837Z,0.70
2022-08-05T23:35:52.261Z,1.00
2022-08-05T23:38:23.548Z,1.00
2022-08-05T23:40:52.812Z,1.05
2022-08-05T23:43:25.730Z,0.90
2022-08-05T23:46:20.161Z,1.10
2022-08-05T23:49:00.866Z,0.98
2022-08-05T23:51:53.335Z,1.35
2022-08-05T23:54:26.639Z,1.02
2022-08-05T23:57:03.863Z,1.00
